sensor_id;sensor_type;location;lat;lon;timestamp;P1;durP1;ratioP1;P2;durP2;ratioP2
45274;SDS011;31019;43.780;25.948;2024-02-16T00:01:34;28.13;;;26.05;;
45274;SDS011;31019;43.780;25.948;2024-02-16T00:04:01;27.58;;;25.98;;
45274;SDS011;31019;43.780;25.948;2024-02-16T00:06:34;26.40;;;24.73;;
45274;SDS011;31019;43.780;25.948;2024-02-16T00:09:02;26.25;;;24.65;;
45274;SDS011;31019;43.780;25.948;2024-02-16T00:11:35;26.10;;;24.40;;
45274;SDS011;31019;43.780;25.948;2024-02-16T00:14:02;23.02;;;21.52;;
45274;SDS011;31019;43.780;25.948;2024-02-16T00:16:33;23.13;;;21.63;;
45274;SDS011;31019;43.780;25.948;2024-02-16T00:19:00;27.27;;;25.48;;
45274;SDS011;31019;43.780;25.948;2024-02-16T00:21:26;28.65;;;26.85;;
45274;SDS011;31019;43.780;25.948;2024-02-16T00:23:58;28.15;;;26.25;;
45274;SDS011;31019;43.780;25.948;2024-02-16T00:26:40;24.88;;;23.17;;
45274;SDS011;31019;43.780;25.948;2024-02-16T00:29:08;27.90;;;26.10;;
45274;SDS011;31019;43.780;25.948;2024-02-16T00:31:38;26.73;;;24.92;;
45274;SDS011;31019;43.780;25.948;2024-02-16T00:34:05;40.90;;;38.38;;
45274;SDS011;31019;43.780;25.948;2024-02-16T00:36:32;26.10;;;24.30;;
45274;SDS011;31019;43.780;25.948;2024-02-16T00:38:59;25.88;;;23.88;;
45274;SDS011;31019;43.780;25.948;2024-02-16T00:41:26;25.55;;;23.85;;
45274;SDS011;31019;43.780;25.948;2024-02-16T00:43:57;25.55;;;23.85;;
45274;SDS011;31019;43.780;25.948;2024-02-16T00:46:28;26.08;;;24.38;;
45274;SDS011;31019;43.780;25.948;2024-02-16T00:49:00;24.27;;;22.73;;
45274;SDS011;31019;43.780;25.948;2024-02-16T00:51:42;26.75;;;25.08;;
45274;SDS011;31019;43.780;25.948;2024-02-16T00:54:11;28.92;;;27.13;;
45274;SDS011;31019;43.780;25.948;2024-02-16T00:56:40;25.13;;;23.45;;
45274;SDS011;31019;43.780;25.948;2024-02-16T00:59:11;27.88;;;26.10;;
45274;SDS011;31019;43.780;25.948;2024-02-16T01:01:37;58.08;;;54.40;;
45274;SDS011;31019;43.780;25.948;2024-02-16T01:04:04;45.75;;;42.58;;
45274;SDS011;31019;43.780;25.948;2024-02-16T01:12:13;69.40;;;65.40;;
45274;SDS011;31019;43.780;25.948;2024-02-16T01:14:42;94.13;;;88.93;;
45274;SDS011;31019;43.780;25.948;2024-02-16T01:17:09;76.97;;;72.57;;
45274;SDS011;31019;43.780;25.948;2024-02-16T01:19:36;70.38;;;66.57;;
45274;SDS011;31019;43.780;25.948;2024-02-16T01:22:08;74.82;;;70.72;;
45274;SDS011;31019;43.780;25.948;2024-02-16T01:24:36;67.78;;;63.78;;
45274;SDS011;31019;43.780;25.948;2024-02-16T01:27:07;67.85;;;64.10;;
45274;SDS011;31019;43.780;25.948;2024-02-16T01:29:42;56.85;;;52.47;;
45274;SDS011;31019;43.780;25.948;2024-02-16T01:32:11;53.67;;;50.67;;
45274;SDS011;31019;43.780;25.948;2024-02-16T01:34:46;48.13;;;45.05;;
45274;SDS011;31019;43.780;25.948;2024-02-16T01:37:15;41.50;;;39.00;;
45274;SDS011;31019;43.780;25.948;2024-02-16T01:39:46;52.08;;;48.92;;
45274;SDS011;31019;43.780;25.948;2024-02-16T01:42:12;54.97;;;51.97;;
45274;SDS011;31019;43.780;25.948;2024-02-16T01:44:52;55.05;;;52.05;;
45274;SDS011;31019;43.780;25.948;2024-02-16T01:47:36;42.35;;;39.47;;
45274;SDS011;31019;43.780;25.948;2024-02-16T01:53:04;51.70;;;48.42;;
45274;SDS011;31019;43.780;25.948;2024-02-16T01:55:31;29.55;;;27.65;;
45274;SDS011;31019;43.780;25.948;2024-02-16T01:57:59;29.13;;;27.33;;
45274;SDS011;31019;43.780;25.948;2024-02-16T02:00:40;28.38;;;26.48;;
45274;SDS011;31019;43.780;25.948;2024-02-16T02:05:44;31.98;;;29.77;;
45274;SDS011;31019;43.780;25.948;2024-02-16T02:08:12;29.63;;;27.38;;
45274;SDS011;31019;43.780;25.948;2024-02-16T02:13:33;30.13;;;28.15;;
45274;SDS011;31019;43.780;25.948;2024-02-16T02:16:09;30.77;;;28.67;;
45274;SDS011;31019;43.780;25.948;2024-02-16T02:21:33;29.08;;;27.08;;
45274;SDS011;31019;43.780;25.948;2024-02-16T02:24:02;31.45;;;29.38;;
45274;SDS011;31019;43.780;25.948;2024-02-16T02:26:30;32.70;;;30.50;;
45274;SDS011;31019;43.780;25.948;2024-02-16T02:28:57;30.00;;;28.00;;
45274;SDS011;31019;43.780;25.948;2024-02-16T02:31:24;31.40;;;29.20;;
45274;SDS011;31019;43.780;25.948;2024-02-16T02:33:51;31.83;;;29.60;;
45274;SDS011;31019;43.780;25.948;2024-02-16T02:36:21;33.03;;;30.90;;
45274;SDS011;31019;43.780;25.948;2024-02-16T02:38:51;32.63;;;30.52;;
45274;SDS011;31019;43.780;25.948;2024-02-16T02:41:20;29.98;;;27.98;;
45274;SDS011;31019;43.780;25.948;2024-02-16T02:43:47;32.03;;;29.75;;
45274;SDS011;31019;43.780;25.948;2024-02-16T02:46:14;31.63;;;29.73;;
45274;SDS011;31019;43.780;25.948;2024-02-16T02:48:42;34.05;;;31.65;;
45274;SDS011;31019;43.780;25.948;2024-02-16T02:51:14;32.65;;;30.20;;
45274;SDS011;31019;43.780;25.948;2024-02-16T02:53:47;32.78;;;30.88;;
45274;SDS011;31019;43.780;25.948;2024-02-16T02:56:14;30.48;;;28.48;;
45274;SDS011;31019;43.780;25.948;2024-02-16T02:58:42;30.13;;;28.30;;
45274;SDS011;31019;43.780;25.948;2024-02-16T03:01:09;34.95;;;32.83;;
45274;SDS011;31019;43.780;25.948;2024-02-16T03:03:36;37.13;;;34.92;;
45274;SDS011;31019;43.780;25.948;2024-02-16T03:06:03;33.80;;;31.88;;
45274;SDS011;31019;43.780;25.948;2024-02-16T03:08:43;32.63;;;30.83;;
45274;SDS011;31019;43.780;25.948;2024-02-16T03:11:10;43.03;;;40.58;;
45274;SDS011;31019;43.780;25.948;2024-02-16T03:13:37;37.03;;;34.83;;
45274;SDS011;31019;43.780;25.948;2024-02-16T03:16:17;35.45;;;33.30;;
45274;SDS011;31019;43.780;25.948;2024-02-16T03:21:18;36.03;;;34.03;;
45274;SDS011;31019;43.780;25.948;2024-02-16T03:23:46;42.28;;;40.08;;
45274;SDS011;31019;43.780;25.948;2024-02-16T03:26:13;40.53;;;38.25;;
45274;SDS011;31019;43.780;25.948;2024-02-16T03:28:43;40.53;;;38.22;;
45274;SDS011;31019;43.780;25.948;2024-02-16T03:31:20;42.58;;;40.45;;
45274;SDS011;31019;43.780;25.948;2024-02-16T03:34:05;42.97;;;40.47;;
45274;SDS011;31019;43.780;25.948;2024-02-16T03:36:32;39.65;;;37.38;;
45274;SDS011;31019;43.780;25.948;2024-02-16T03:39:01;42.00;;;39.78;;
45274;SDS011;31019;43.780;25.948;2024-02-16T03:41:36;39.30;;;37.15;;
45274;SDS011;31019;43.780;25.948;2024-02-16T03:44:03;45.22;;;42.53;;
45274;SDS011;31019;43.780;25.948;2024-02-16T03:46:34;40.72;;;38.53;;
45274;SDS011;31019;43.780;25.948;2024-02-16T03:49:02;40.28;;;37.88;;
45274;SDS011;31019;43.780;25.948;2024-02-16T03:51:29;37.92;;;35.42;;
45274;SDS011;31019;43.780;25.948;2024-02-16T03:53:58;38.47;;;36.35;;
45274;SDS011;31019;43.780;25.948;2024-02-16T03:56:25;38.58;;;36.35;;
45274;SDS011;31019;43.780;25.948;2024-02-16T03:58:52;37.92;;;35.42;;
45274;SDS011;31019;43.780;25.948;2024-02-16T04:01:19;35.92;;;33.72;;
45274;SDS011;31019;43.780;25.948;2024-02-16T04:03:51;34.95;;;33.10;;
45274;SDS011;31019;43.780;25.948;2024-02-16T04:06:18;29.63;;;27.92;;
45274;SDS011;31019;43.780;25.948;2024-02-16T04:08:45;32.45;;;30.00;;
45274;SDS011;31019;43.780;25.948;2024-02-16T04:11:14;37.30;;;35.25;;
45274;SDS011;31019;43.780;25.948;2024-02-16T04:13:53;35.95;;;33.92;;
45274;SDS011;31019;43.780;25.948;2024-02-16T04:16:22;62.38;;;59.13;;
45274;SDS011;31019;43.780;25.948;2024-02-16T04:21:35;74.53;;;70.85;;
45274;SDS011;31019;43.780;25.948;2024-02-16T04:24:07;50.15;;;47.55;;
45274;SDS011;31019;43.780;25.948;2024-02-16T04:26:34;58.15;;;55.33;;
45274;SDS011;31019;43.780;25.948;2024-02-16T04:29:02;39.80;;;37.80;;
45274;SDS011;31019;43.780;25.948;2024-02-16T04:31:30;35.78;;;33.75;;
45274;SDS011;31019;43.780;25.948;2024-02-16T04:34:06;34.78;;;32.58;;
45274;SDS011;31019;43.780;25.948;2024-02-16T04:36:38;36.92;;;34.85;;
45274;SDS011;31019;43.780;25.948;2024-02-16T04:39:05;49.33;;;46.47;;
45274;SDS011;31019;43.780;25.948;2024-02-16T04:41:32;48.35;;;45.65;;
45274;SDS011;31019;43.780;25.948;2024-02-16T04:43:59;65.57;;;61.60;;
45274;SDS011;31019;43.780;25.948;2024-02-16T04:46:27;63.00;;;58.83;;
45274;SDS011;31019;43.780;25.948;2024-02-16T04:49:07;33.53;;;31.52;;
45274;SDS011;31019;43.780;25.948;2024-02-16T04:51:37;28.60;;;25.98;;
45274;SDS011;31019;43.780;25.948;2024-02-16T04:54:24;34.78;;;31.98;;
45274;SDS011;31019;43.780;25.948;2024-02-16T04:56:51;33.92;;;30.83;;
45274;SDS011;31019;43.780;25.948;2024-02-16T05:02:16;36.63;;;34.47;;
45274;SDS011;31019;43.780;25.948;2024-02-16T05:04:45;31.98;;;29.27;;
45274;SDS011;31019;43.780;25.948;2024-02-16T05:07:12;40.03;;;36.83;;
45274;SDS011;31019;43.780;25.948;2024-02-16T05:09:56;39.20;;;35.42;;
45274;SDS011;31019;43.780;25.948;2024-02-16T05:12:23;38.08;;;34.30;;
45274;SDS011;31019;43.780;25.948;2024-02-16T05:14:55;34.55;;;31.58;;
45274;SDS011;31019;43.780;25.948;2024-02-16T05:17:21;40.25;;;37.95;;
45274;SDS011;31019;43.780;25.948;2024-02-16T05:19:53;42.88;;;40.38;;
45274;SDS011;31019;43.780;25.948;2024-02-16T05:22:20;45.40;;;42.80;;
45274;SDS011;31019;43.780;25.948;2024-02-16T05:24:47;36.00;;;33.78;;
45274;SDS011;31019;43.780;25.948;2024-02-16T05:27:17;35.25;;;32.72;;
45274;SDS011;31019;43.780;25.948;2024-02-16T05:29:44;32.38;;;30.08;;
45274;SDS011;31019;43.780;25.948;2024-02-16T05:32:26;25.65;;;24.00;;
45274;SDS011;31019;43.780;25.948;2024-02-16T05:35:05;25.67;;;24.08;;
45274;SDS011;31019;43.780;25.948;2024-02-16T05:37:40;23.65;;;22.17;;
45274;SDS011;31019;43.780;25.948;2024-02-16T05:40:09;26.75;;;25.15;;
45274;SDS011;31019;43.780;25.948;2024-02-16T05:42:47;28.27;;;26.48;;
45274;SDS011;31019;43.780;25.948;2024-02-16T05:45:21;26.80;;;25.10;;
45274;SDS011;31019;43.780;25.948;2024-02-16T05:47:56;26.20;;;24.50;;
45274;SDS011;31019;43.780;25.948;2024-02-16T05:50:32;24.08;;;22.48;;
45274;SDS011;31019;43.780;25.948;2024-02-16T05:52:59;23.67;;;22.05;;
45274;SDS011;31019;43.780;25.948;2024-02-16T05:55:26;26.42;;;24.63;;
45274;SDS011;31019;43.780;25.948;2024-02-16T05:57:53;28.13;;;26.30;;
45274;SDS011;31019;43.780;25.948;2024-02-16T06:00:20;28.88;;;27.17;;
45274;SDS011;31019;43.780;25.948;2024-02-16T06:02:51;25.87;;;24.27;;
45274;SDS011;31019;43.780;25.948;2024-02-16T06:05:18;28.17;;;26.38;;
45274;SDS011;31019;43.780;25.948;2024-02-16T06:07:49;28.25;;;26.58;;
45274;SDS011;31019;43.780;25.948;2024-02-16T06:10:34;27.48;;;25.83;;
45274;SDS011;31019;43.780;25.948;2024-02-16T06:13:11;28.02;;;26.40;;
45274;SDS011;31019;43.780;25.948;2024-02-16T06:15:47;22.48;;;21.25;;
45274;SDS011;31019;43.780;25.948;2024-02-16T06:18:15;25.15;;;23.45;;
45274;SDS011;31019;43.780;25.948;2024-02-16T06:20:42;23.13;;;21.77;;
45274;SDS011;31019;43.780;25.948;2024-02-16T06:23:10;23.00;;;21.80;;
45274;SDS011;31019;43.780;25.948;2024-02-16T06:25:42;23.08;;;21.77;;
45274;SDS011;31019;43.780;25.948;2024-02-16T06:28:10;23.35;;;21.95;;
45274;SDS011;31019;43.780;25.948;2024-02-16T06:30:39;23.90;;;22.60;;
45274;SDS011;31019;43.780;25.948;2024-02-16T06:33:14;25.70;;;24.20;;
45274;SDS011;31019;43.780;25.948;2024-02-16T06:35:49;23.90;;;22.50;;
45274;SDS011;31019;43.780;25.948;2024-02-16T06:38:17;24.45;;;23.05;;
45274;SDS011;31019;43.780;25.948;2024-02-16T06:40:55;23.70;;;22.27;;
45274;SDS011;31019;43.780;25.948;2024-02-16T06:43:22;23.10;;;20.80;;
45274;SDS011;31019;43.780;25.948;2024-02-16T06:45:49;23.67;;;22.45;;
45274;SDS011;31019;43.780;25.948;2024-02-16T06:48:24;23.85;;;22.55;;
45274;SDS011;31019;43.780;25.948;2024-02-16T06:50:51;24.73;;;23.20;;
45274;SDS011;31019;43.780;25.948;2024-02-16T06:53:20;24.30;;;22.80;;
45274;SDS011;31019;43.780;25.948;2024-02-16T06:55:47;22.30;;;20.90;;
45274;SDS011;31019;43.780;25.948;2024-02-16T06:58:15;27.52;;;25.70;;
45274;SDS011;31019;43.780;25.948;2024-02-16T07:00:42;27.15;;;25.65;;
45274;SDS011;31019;43.780;25.948;2024-02-16T07:03:09;24.73;;;23.33;;
45274;SDS011;31019;43.780;25.948;2024-02-16T07:05:36;25.80;;;24.38;;
45274;SDS011;31019;43.780;25.948;2024-02-16T07:08:04;30.83;;;28.83;;
45274;SDS011;31019;43.780;25.948;2024-02-16T07:10:34;27.27;;;25.67;;
45274;SDS011;31019;43.780;25.948;2024-02-16T07:13:04;26.88;;;25.17;;
45274;SDS011;31019;43.780;25.948;2024-02-16T07:15:34;25.92;;;24.33;;
45274;SDS011;31019;43.780;25.948;2024-02-16T07:18:01;25.73;;;24.20;;
45274;SDS011;31019;43.780;25.948;2024-02-16T07:20:36;24.65;;;22.90;;
45274;SDS011;31019;43.780;25.948;2024-02-16T07:23:03;24.05;;;22.75;;
45274;SDS011;31019;43.780;25.948;2024-02-16T07:25:39;25.05;;;23.55;;
45274;SDS011;31019;43.780;25.948;2024-02-16T07:28:08;24.35;;;22.90;;
45274;SDS011;31019;43.780;25.948;2024-02-16T07:30:45;24.30;;;22.90;;
45274;SDS011;31019;43.780;25.948;2024-02-16T07:33:12;27.00;;;25.40;;
45274;SDS011;31019;43.780;25.948;2024-02-16T07:35:39;24.30;;;22.95;;
45274;SDS011;31019;43.780;25.948;2024-02-16T07:38:15;25.77;;;24.17;;
45274;SDS011;31019;43.780;25.948;2024-02-16T07:40:53;25.63;;;24.23;;
45274;SDS011;31019;43.780;25.948;2024-02-16T07:43:20;23.70;;;22.30;;
45274;SDS011;31019;43.780;25.948;2024-02-16T07:45:49;24.75;;;23.30;;
45274;SDS011;31019;43.780;25.948;2024-02-16T07:48:19;26.48;;;25.08;;
45274;SDS011;31019;43.780;25.948;2024-02-16T07:50:46;25.88;;;24.48;;
45274;SDS011;31019;43.780;25.948;2024-02-16T07:53:15;25.45;;;23.52;;
45274;SDS011;31019;43.780;25.948;2024-02-16T07:55:52;24.10;;;22.70;;
45274;SDS011;31019;43.780;25.948;2024-02-16T07:58:23;27.13;;;25.42;;
45274;SDS011;31019;43.780;25.948;2024-02-16T08:00:51;24.83;;;23.17;;
45274;SDS011;31019;43.780;25.948;2024-02-16T08:03:21;24.63;;;23.23;;
45274;SDS011;31019;43.780;25.948;2024-02-16T08:06:00;26.88;;;25.05;;
45274;SDS011;31019;43.780;25.948;2024-02-16T08:08:28;24.50;;;23.00;;
45274;SDS011;31019;43.780;25.948;2024-02-16T08:11:08;23.70;;;22.30;;
45274;SDS011;31019;43.780;25.948;2024-02-16T08:13:39;24.58;;;22.95;;
45274;SDS011;31019;43.780;25.948;2024-02-16T08:16:11;22.00;;;20.80;;
45274;SDS011;31019;43.780;25.948;2024-02-16T08:18:43;24.60;;;23.15;;
45274;SDS011;31019;43.780;25.948;2024-02-16T08:21:11;25.17;;;23.83;;
45274;SDS011;31019;43.780;25.948;2024-02-16T08:23:38;24.95;;;23.50;;
45274;SDS011;31019;43.780;25.948;2024-02-16T08:26:06;24.23;;;22.92;;
45274;SDS011;31019;43.780;25.948;2024-02-16T08:28:43;22.88;;;21.67;;
45274;SDS011;31019;43.780;25.948;2024-02-16T08:31:10;29.80;;;28.00;;
45274;SDS011;31019;43.780;25.948;2024-02-16T08:33:46;24.42;;;22.80;;
45274;SDS011;31019;43.780;25.948;2024-02-16T08:36:13;23.33;;;21.98;;
45274;SDS011;31019;43.780;25.948;2024-02-16T08:38:40;22.45;;;21.15;;
45274;SDS011;31019;43.780;25.948;2024-02-16T08:41:10;22.83;;;21.50;;
45274;SDS011;31019;43.780;25.948;2024-02-16T08:43:49;22.90;;;21.60;;
45274;SDS011;31019;43.780;25.948;2024-02-16T08:46:32;24.42;;;23.13;;
45274;SDS011;31019;43.780;25.948;2024-02-16T08:48:59;23.00;;;21.80;;
45274;SDS011;31019;43.780;25.948;2024-02-16T08:51:28;22.25;;;20.88;;
45274;SDS011;31019;43.780;25.948;2024-02-16T08:53:57;22.25;;;20.85;;
45274;SDS011;31019;43.780;25.948;2024-02-16T08:56:25;21.38;;;20.08;;
45274;SDS011;31019;43.780;25.948;2024-02-16T08:58:53;23.75;;;22.02;;
45274;SDS011;31019;43.780;25.948;2024-02-16T09:01:29;23.23;;;21.73;;
45274;SDS011;31019;43.780;25.948;2024-02-16T09:03:57;23.60;;;22.17;;
45274;SDS011;31019;43.780;25.948;2024-02-16T09:06:26;22.15;;;20.77;;
45274;SDS011;31019;43.780;25.948;2024-02-16T09:08:53;23.33;;;21.95;;
45274;SDS011;31019;43.780;25.948;2024-02-16T09:11:27;22.30;;;20.90;;
45274;SDS011;31019;43.780;25.948;2024-02-16T09:13:59;22.50;;;21.20;;
45274;SDS011;31019;43.780;25.948;2024-02-16T09:16:26;22.10;;;20.70;;
45274;SDS011;31019;43.780;25.948;2024-02-16T09:18:53;22.45;;;21.05;;
45274;SDS011;31019;43.780;25.948;2024-02-16T09:21:20;21.45;;;20.13;;
45274;SDS011;31019;43.780;25.948;2024-02-16T09:23:52;22.23;;;20.83;;
45274;SDS011;31019;43.780;25.948;2024-02-16T09:26:19;21.88;;;20.25;;
45274;SDS011;31019;43.780;25.948;2024-02-16T09:28:47;22.83;;;21.23;;
45274;SDS011;31019;43.780;25.948;2024-02-16T09:31:15;20.27;;;18.88;;
45274;SDS011;31019;43.780;25.948;2024-02-16T09:33:43;20.88;;;19.58;;
45274;SDS011;31019;43.780;25.948;2024-02-16T09:36:10;24.90;;;23.40;;
45274;SDS011;31019;43.780;25.948;2024-02-16T09:38:52;26.40;;;23.65;;
45274;SDS011;31019;43.780;25.948;2024-02-16T09:41:19;22.00;;;20.70;;
45274;SDS011;31019;43.780;25.948;2024-02-16T09:43:50;21.92;;;20.58;;
45274;SDS011;31019;43.780;25.948;2024-02-16T09:46:19;23.15;;;21.58;;
45274;SDS011;31019;43.780;25.948;2024-02-16T09:48:49;21.52;;;20.13;;
45274;SDS011;31019;43.780;25.948;2024-02-16T09:51:18;20.95;;;19.65;;
45274;SDS011;31019;43.780;25.948;2024-02-16T09:53:47;26.05;;;24.40;;
45274;SDS011;31019;43.780;25.948;2024-02-16T09:56:20;23.58;;;21.98;;
45274;SDS011;31019;43.780;25.948;2024-02-16T09:58:47;24.02;;;22.27;;
45274;SDS011;31019;43.780;25.948;2024-02-16T10:01:18;23.08;;;21.77;;
45274;SDS011;31019;43.780;25.948;2024-02-16T10:03:47;23.23;;;21.73;;
45274;SDS011;31019;43.780;25.948;2024-02-16T10:06:15;22.65;;;21.25;;
45274;SDS011;31019;43.780;25.948;2024-02-16T10:08:52;26.08;;;24.48;;
45274;SDS011;31019;43.780;25.948;2024-02-16T10:11:24;25.98;;;24.48;;
45274;SDS011;31019;43.780;25.948;2024-02-16T10:13:54;27.13;;;25.20;;
45274;SDS011;31019;43.780;25.948;2024-02-16T10:16:23;23.00;;;21.80;;
45274;SDS011;31019;43.780;25.948;2024-02-16T10:18:55;23.83;;;22.38;;
45274;SDS011;31019;43.780;25.948;2024-02-16T10:21:25;25.63;;;24.02;;
45274;SDS011;31019;43.780;25.948;2024-02-16T10:23:59;22.88;;;21.38;;
45274;SDS011;31019;43.780;25.948;2024-02-16T10:26:27;29.98;;;28.17;;
45274;SDS011;31019;43.780;25.948;2024-02-16T10:29:04;27.60;;;25.80;;
45274;SDS011;31019;43.780;25.948;2024-02-16T10:31:37;26.27;;;24.58;;
45274;SDS011;31019;43.780;25.948;2024-02-16T10:34:07;26.45;;;24.75;;
45274;SDS011;31019;43.780;25.948;2024-02-16T10:36:38;28.23;;;26.42;;
45274;SDS011;31019;43.780;25.948;2024-02-16T10:41:49;25.90;;;24.25;;
45274;SDS011;31019;43.780;25.948;2024-02-16T10:44:17;20.73;;;19.48;;
45274;SDS011;31019;43.780;25.948;2024-02-16T10:46:47;22.23;;;20.83;;
45274;SDS011;31019;43.780;25.948;2024-02-16T10:49:16;26.13;;;24.63;;
45274;SDS011;31019;43.780;25.948;2024-02-16T10:51:46;24.52;;;23.02;;
45274;SDS011;31019;43.780;25.948;2024-02-16T10:54:19;23.95;;;22.52;;
45274;SDS011;31019;43.780;25.948;2024-02-16T10:56:53;25.45;;;23.85;;
45274;SDS011;31019;43.780;25.948;2024-02-16T10:59:21;30.13;;;28.42;;
45274;SDS011;31019;43.780;25.948;2024-02-16T11:02:00;26.23;;;24.52;;
45274;SDS011;31019;43.780;25.948;2024-02-16T11:04:36;27.33;;;25.73;;
45274;SDS011;31019;43.780;25.948;2024-02-16T11:07:10;30.65;;;28.63;;
45274;SDS011;31019;43.780;25.948;2024-02-16T11:09:40;27.10;;;25.47;;
45274;SDS011;31019;43.780;25.948;2024-02-16T11:12:11;29.35;;;27.45;;
45274;SDS011;31019;43.780;25.948;2024-02-16T11:14:40;27.05;;;25.55;;
45274;SDS011;31019;43.780;25.948;2024-02-16T11:17:14;26.50;;;24.90;;
45274;SDS011;31019;43.780;25.948;2024-02-16T11:19:41;36.30;;;32.90;;
45274;SDS011;31019;43.780;25.948;2024-02-16T11:22:09;35.33;;;33.33;;
45274;SDS011;31019;43.780;25.948;2024-02-16T11:24:42;39.97;;;37.47;;
45274;SDS011;31019;43.780;25.948;2024-02-16T11:27:14;38.65;;;36.40;;
45274;SDS011;31019;43.780;25.948;2024-02-16T11:29:44;45.92;;;43.05;;
45274;SDS011;31019;43.780;25.948;2024-02-16T11:32:21;39.80;;;37.60;;
45274;SDS011;31019;43.780;25.948;2024-02-16T11:34:51;26.48;;;24.67;;
45274;SDS011;31019;43.780;25.948;2024-02-16T11:37:24;26.60;;;24.90;;
45274;SDS011;31019;43.780;25.948;2024-02-16T11:42:21;26.48;;;24.65;;
45274;SDS011;31019;43.780;25.948;2024-02-16T11:44:54;36.97;;;34.78;;
45274;SDS011;31019;43.780;25.948;2024-02-16T11:47:25;40.78;;;38.45;;
45274;SDS011;31019;43.780;25.948;2024-02-16T11:52:44;42.92;;;40.42;;
45274;SDS011;31019;43.780;25.948;2024-02-16T11:55:27;45.30;;;42.70;;
45274;SDS011;31019;43.780;25.948;2024-02-16T12:00:28;36.45;;;34.17;;
45274;SDS011;31019;43.780;25.948;2024-02-16T12:03:00;42.83;;;40.42;;
45274;SDS011;31019;43.780;25.948;2024-02-16T12:05:27;29.42;;;27.73;;
45274;SDS011;31019;43.780;25.948;2024-02-16T12:07:57;24.27;;;22.40;;
45274;SDS011;31019;43.780;25.948;2024-02-16T12:10:24;27.10;;;25.40;;
45274;SDS011;31019;43.780;25.948;2024-02-16T12:12:52;27.85;;;26.10;;
45274;SDS011;31019;43.780;25.948;2024-02-16T12:15:22;37.65;;;35.35;;
45274;SDS011;31019;43.780;25.948;2024-02-16T12:17:59;39.22;;;36.92;;
45274;SDS011;31019;43.780;25.948;2024-02-16T12:20:29;41.70;;;39.20;;
45274;SDS011;31019;43.780;25.948;2024-02-16T12:22:57;33.45;;;31.35;;
45274;SDS011;31019;43.780;25.948;2024-02-16T12:25:36;34.83;;;32.78;;
45274;SDS011;31019;43.780;25.948;2024-02-16T12:28:03;39.70;;;37.40;;
45274;SDS011;31019;43.780;25.948;2024-02-16T12:30:31;26.35;;;24.15;;
45274;SDS011;31019;43.780;25.948;2024-02-16T12:32:58;26.40;;;24.50;;
45274;SDS011;31019;43.780;25.948;2024-02-16T12:35:26;27.60;;;25.80;;
45274;SDS011;31019;43.780;25.948;2024-02-16T12:38:02;35.15;;;32.92;;
45274;SDS011;31019;43.780;25.948;2024-02-16T12:40:30;34.85;;;32.58;;
45274;SDS011;31019;43.780;25.948;2024-02-16T12:43:05;35.75;;;33.55;;
45274;SDS011;31019;43.780;25.948;2024-02-16T12:45:36;36.53;;;34.33;;
45274;SDS011;31019;43.780;25.948;2024-02-16T12:48:06;37.17;;;34.95;;
45274;SDS011;31019;43.780;25.948;2024-02-16T12:50:37;26.35;;;24.60;;
45274;SDS011;31019;43.780;25.948;2024-02-16T12:56:05;25.10;;;23.20;;
45274;SDS011;31019;43.780;25.948;2024-02-16T12:58:33;36.30;;;33.90;;
45274;SDS011;31019;43.780;25.948;2024-02-16T13:01:06;40.75;;;38.20;;
45274;SDS011;31019;43.780;25.948;2024-02-16T13:03:38;37.65;;;35.25;;
45274;SDS011;31019;43.780;25.948;2024-02-16T13:06:09;35.72;;;33.53;;
45274;SDS011;31019;43.780;25.948;2024-02-16T13:11:31;38.80;;;36.30;;
45274;SDS011;31019;43.780;25.948;2024-02-16T13:14:05;37.80;;;35.30;;
45274;SDS011;31019;43.780;25.948;2024-02-16T13:16:36;36.13;;;33.83;;
45274;SDS011;31019;43.780;25.948;2024-02-16T13:19:03;30.08;;;27.88;;
45274;SDS011;31019;43.780;25.948;2024-02-16T13:21:36;31.60;;;29.60;;
45274;SDS011;31019;43.780;25.948;2024-02-16T13:24:16;23.05;;;21.35;;
45274;SDS011;31019;43.780;25.948;2024-02-16T13:26:49;23.48;;;22.05;;
45274;SDS011;31019;43.780;25.948;2024-02-16T13:32:59;35.25;;;32.75;;
45274;SDS011;31019;43.780;25.948;2024-02-16T13:51:11;26.08;;;24.25;;
45274;SDS011;31019;43.780;25.948;2024-02-16T13:53:40;26.90;;;25.10;;
45274;SDS011;31019;43.780;25.948;2024-02-16T13:59:29;25.45;;;23.85;;
45274;SDS011;31019;43.780;25.948;2024-02-16T14:01:59;28.10;;;26.42;;
45274;SDS011;31019;43.780;25.948;2024-02-16T14:07:54;23.60;;;22.20;;
45274;SDS011;31019;43.780;25.948;2024-02-16T14:20:00;24.85;;;23.35;;
45274;SDS011;31019;43.780;25.948;2024-02-16T14:22:37;23.52;;;22.13;;
45274;SDS011;31019;43.780;25.948;2024-02-16T14:25:10;22.77;;;21.27;;
45274;SDS011;31019;43.780;25.948;2024-02-16T14:30:14;31.08;;;28.98;;
45274;SDS011;31019;43.780;25.948;2024-02-16T14:32:47;24.02;;;22.63;;
45274;SDS011;31019;43.780;25.948;2024-02-16T14:35:21;35.05;;;32.75;;
45274;SDS011;31019;43.780;25.948;2024-02-16T14:40:51;22.67;;;20.85;;
45274;SDS011;31019;43.780;25.948;2024-02-16T14:52:43;25.20;;;23.60;;
45274;SDS011;31019;43.780;25.948;2024-02-16T15:01:15;28.80;;;26.60;;
45274;SDS011;31019;43.780;25.948;2024-02-16T15:03:48;26.77;;;24.85;;
45274;SDS011;31019;43.780;25.948;2024-02-16T15:06:35;23.17;;;21.57;;
45274;SDS011;31019;43.780;25.948;2024-02-16T15:09:02;22.52;;;20.90;;
45274;SDS011;31019;43.780;25.948;2024-02-16T15:11:44;24.02;;;22.42;;
45274;SDS011;31019;43.780;25.948;2024-02-16T15:16:52;25.02;;;23.33;;
45274;SDS011;31019;43.780;25.948;2024-02-16T15:22:44;27.20;;;25.30;;
45274;SDS011;31019;43.780;25.948;2024-02-16T15:25:22;23.92;;;22.33;;
45274;SDS011;31019;43.780;25.948;2024-02-16T15:27:50;26.85;;;25.05;;
45274;SDS011;31019;43.780;25.948;2024-02-16T15:33:06;26.33;;;24.13;;
45274;SDS011;31019;43.780;25.948;2024-02-16T15:38:16;21.88;;;20.38;;
45274;SDS011;31019;43.780;25.948;2024-02-16T15:40:51;22.08;;;20.58;;
45274;SDS011;31019;43.780;25.948;2024-02-16T15:46:08;24.23;;;22.13;;
45274;SDS011;31019;43.780;25.948;2024-02-16T15:48:40;23.83;;;22.00;;
45274;SDS011;31019;43.780;25.948;2024-02-16T15:51:13;21.95;;;20.55;;
45274;SDS011;31019;43.780;25.948;2024-02-16T15:53:47;24.02;;;22.15;;
45274;SDS011;31019;43.780;25.948;2024-02-16T15:56:17;23.55;;;21.95;;
45274;SDS011;31019;43.780;25.948;2024-02-16T15:58:46;24.40;;;22.50;;
45274;SDS011;31019;43.780;25.948;2024-02-16T16:06:51;24.13;;;22.42;;
45274;SDS011;31019;43.780;25.948;2024-02-16T16:09:18;26.88;;;24.98;;
45274;SDS011;31019;43.780;25.948;2024-02-16T16:14:29;25.00;;;23.38;;
45274;SDS011;31019;43.780;25.948;2024-02-16T16:16:58;25.00;;;23.50;;
45274;SDS011;31019;43.780;25.948;2024-02-16T16:19:26;24.33;;;22.63;;
45274;SDS011;31019;43.780;25.948;2024-02-16T16:21:58;25.45;;;23.85;;
45274;SDS011;31019;43.780;25.948;2024-02-16T16:24:30;26.35;;;24.75;;
45274;SDS011;31019;43.780;25.948;2024-02-16T16:26:56;27.30;;;25.35;;
45274;SDS011;31019;43.780;25.948;2024-02-16T16:29:27;27.00;;;25.08;;